sensor_id;sensor_type;location;lat;lon;timestamp;pressure;altitude;pressure_sealevel;temperature
60731;BMP280;46580;52.114;11.674;2022-09-28T00:02:04;99174.78;;;10.20
60731;BMP280;46580;52.114;11.674;2022-09-28T00:04:30;99163.56;;;10.21
60731;BMP280;46580;52.114;11.674;2022-09-28T00:06:57;99162.59;;;10.22
60731;BMP280;46580;52.114;11.674;2022-09-28T00:09:22;99160.97;;;10.21
60731;BMP280;46580;52.114;11.674;2022-09-28T00:11:48;99164.38;;;10.22
60731;BMP280;46580;52.114;11.674;2022-09-28T00:14:13;99164.56;;;10.28
60731;BMP280;46580;52.114;11.674;2022-09-28T00:16:41;99168.16;;;10.35
60731;BMP280;46580;52.114;11.674;2022-09-28T00:19:08;99161.38;;;10.34
60731;BMP280;46580;52.114;11.674;2022-09-28T00:21:36;99152.91;;;10.41
60731;BMP280;46580;52.114;11.674;2022-09-28T00:24:03;99158.72;;;10.43
60731;BMP280;46580;52.114;11.674;2022-09-28T00:26:52;99150.19;;;10.42
60731;BMP280;46580;52.114;11.674;2022-09-28T00:29:26;99147.28;;;10.38
60731;BMP280;46580;52.114;11.674;2022-09-28T00:31:54;99142.91;;;10.30
60731;BMP280;46580;52.114;11.674;2022-09-28T00:34:26;99154.63;;;10.33
60731;BMP280;46580;52.114;11.674;2022-09-28T00:36:51;99155.22;;;10.27
60731;BMP280;46580;52.114;11.674;2022-09-28T00:39:17;99150.09;;;10.27
60731;BMP280;46580;52.114;11.674;2022-09-28T00:41:43;99138.59;;;10.39
60731;BMP280;46580;52.114;11.674;2022-09-28T00:46:53;99141.34;;;10.37
60731;BMP280;46580;52.114;11.674;2022-09-28T00:49:24;99138.38;;;10.32
60731;BMP280;46580;52.114;11.674;2022-09-28T00:51:52;99138.75;;;10.37
60731;BMP280;46580;52.114;11.674;2022-09-28T00:54:18;99139.19;;;10.33
60731;BMP280;46580;52.114;11.674;2022-09-28T00:56:45;99135.34;;;10.29
60731;BMP280;46580;52.114;11.674;2022-09-28T00:59:12;99129.66;;;10.25
60731;BMP280;46580;52.114;11.674;2022-09-28T01:01:38;99134.94;;;10.16
60731;BMP280;46580;52.114;11.674;2022-09-28T01:04:04;99133.47;;;10.14
60731;BMP280;46580;52.114;11.674;2022-09-28T01:06:32;99132.16;;;10.10
60731;BMP280;46580;52.114;11.674;2022-09-28T01:09:17;99133.91;;;10.09
60731;BMP280;46580;52.114;11.674;2022-09-28T01:11:43;99127.50;;;10.13
60731;BMP280;46580;52.114;11.674;2022-09-28T01:14:10;99126.16;;;10.02
60731;BMP280;46580;52.114;11.674;2022-09-28T01:16:56;99123.22;;;9.97
60731;BMP280;46580;52.114;11.674;2022-09-28T01:27:38;99112.16;;;10.04
60731;BMP280;46580;52.114;11.674;2022-09-28T01:30:17;99103.22;;;10.08
60731;BMP280;46580;52.114;11.674;2022-09-28T01:35:25;99095.81;;;10.05
60731;BMP280;46580;52.114;11.674;2022-09-28T01:38:16;99095.97;;;10.03
60731;BMP280;46580;52.114;11.674;2022-09-28T01:40:45;99086.66;;;10.03
60731;BMP280;46580;52.114;11.674;2022-09-28T01:43:14;99088.97;;;10.13
60731;BMP280;46580;52.114;11.674;2022-09-28T01:45:44;99078.88;;;10.20
60731;BMP280;46580;52.114;11.674;2022-09-28T01:48:16;99065.72;;;10.22
60731;BMP280;46580;52.114;11.674;2022-09-28T01:50:45;99069.53;;;10.19
60731;BMP280;46580;52.114;11.674;2022-09-28T01:53:21;99066.91;;;10.11
60731;BMP280;46580;52.114;11.674;2022-09-28T01:55:53;99070.16;;;10.13
60731;BMP280;46580;52.114;11.674;2022-09-28T02:01:03;99065.00;;;10.13
60731;BMP280;46580;52.114;11.674;2022-09-28T02:03:46;99062.75;;;10.10
60731;BMP280;46580;52.114;11.674;2022-09-28T02:06:35;99062.00;;;10.17
60731;BMP280;46580;52.114;11.674;2022-09-28T02:09:08;99068.72;;;10.10
60731;BMP280;46580;52.114;11.674;2022-09-28T02:11:36;99062.41;;;10.05
60731;BMP280;46580;52.114;11.674;2022-09-28T02:14:16;99071.28;;;10.10
60731;BMP280;46580;52.114;11.674;2022-09-28T02:16:46;99062.91;;;10.08
60731;BMP280;46580;52.114;11.674;2022-09-28T02:19:26;99071.22;;;10.03
60731;BMP280;46580;52.114;11.674;2022-09-28T02:22:24;99068.06;;;10.08
60731;BMP280;46580;52.114;11.674;2022-09-28T02:25:03;99066.16;;;10.10
60731;BMP280;46580;52.114;11.674;2022-09-28T02:28:02;99072.28;;;10.17
60731;BMP280;46580;52.114;11.674;2022-09-28T02:30:29;99067.16;;;10.25
60731;BMP280;46580;52.114;11.674;2022-09-28T02:32:58;99069.25;;;10.22
60731;BMP280;46580;52.114;11.674;2022-09-28T02:35:25;99065.59;;;10.32
60731;BMP280;46580;52.114;11.674;2022-09-28T02:37:50;99061.16;;;10.41
60731;BMP280;46580;52.114;11.674;2022-09-28T02:40:22;99060.22;;;10.50
60731;BMP280;46580;52.114;11.674;2022-09-28T02:43:08;99061.81;;;10.51
60731;BMP280;46580;52.114;11.674;2022-09-28T02:45:47;99056.44;;;10.29
60731;BMP280;46580;52.114;11.674;2022-09-28T02:51:17;99060.94;;;10.03
60731;BMP280;46580;52.114;11.674;2022-09-28T02:56:35;99046.16;;;9.97
60731;BMP280;46580;52.114;11.674;2022-09-28T03:02:22;99053.66;;;9.90
60731;BMP280;46580;52.114;11.674;2022-09-28T03:07:36;99039.00;;;9.83
60731;BMP280;46580;52.114;11.674;2022-09-28T03:10:18;99045.19;;;9.56
60731;BMP280;46580;52.114;11.674;2022-09-28T03:12:47;99047.56;;;9.49
60731;BMP280;46580;52.114;11.674;2022-09-28T03:15:20;99039.31;;;9.46
60731;BMP280;46580;52.114;11.674;2022-09-28T03:17:46;99043.56;;;9.38
60731;BMP280;46580;52.114;11.674;2022-09-28T03:20:12;99037.59;;;9.29
60731;BMP280;46580;52.114;11.674;2022-09-28T03:22:38;99039.03;;;9.32
60731;BMP280;46580;52.114;11.674;2022-09-28T03:25:04;99042.13;;;9.35
60731;BMP280;46580;52.114;11.674;2022-09-28T03:27:30;99040.38;;;9.36
60731;BMP280;46580;52.114;11.674;2022-09-28T03:29:55;99036.47;;;9.32
60731;BMP280;46580;52.114;11.674;2022-09-28T03:32:20;99035.97;;;9.28
60731;BMP280;46580;52.114;11.674;2022-09-28T03:34:46;99033.03;;;9.24
60731;BMP280;46580;52.114;11.674;2022-09-28T03:37:11;99034.78;;;9.23
60731;BMP280;46580;52.114;11.674;2022-09-28T03:40:03;99033.03;;;9.24
60731;BMP280;46580;52.114;11.674;2022-09-28T03:42:28;99031.88;;;9.18
60731;BMP280;46580;52.114;11.674;2022-09-28T03:44:53;99035.56;;;9.16
60731;BMP280;46580;52.114;11.674;2022-09-28T03:47:19;99045.88;;;9.07
60731;BMP280;46580;52.114;11.674;2022-09-28T03:49:48;99046.97;;;9.04
60731;BMP280;46580;52.114;11.674;2022-09-28T03:52:13;99043.59;;;9.04
60731;BMP280;46580;52.114;11.674;2022-09-28T03:54:39;99041.69;;;9.06
60731;BMP280;46580;52.114;11.674;2022-09-28T03:57:04;99031.44;;;9.06
60731;BMP280;46580;52.114;11.674;2022-09-28T03:59:30;99026.06;;;9.16
60731;BMP280;46580;52.114;11.674;2022-09-28T04:01:55;99020.94;;;8.99
60731;BMP280;46580;52.114;11.674;2022-09-28T04:04:22;99016.09;;;8.96
60731;BMP280;46580;52.114;11.674;2022-09-28T04:06:48;99016.06;;;8.89
60731;BMP280;46580;52.114;11.674;2022-09-28T04:09:13;99002.31;;;8.97
60731;BMP280;46580;52.114;11.674;2022-09-28T04:11:38;99008.63;;;8.86
60731;BMP280;46580;52.114;11.674;2022-09-28T04:14:04;99013.53;;;8.79
60731;BMP280;46580;52.114;11.674;2022-09-28T04:16:29;99010.88;;;8.72
60731;BMP280;46580;52.114;11.674;2022-09-28T04:18:56;99011.91;;;8.61
60731;BMP280;46580;52.114;11.674;2022-09-28T04:21:22;99018.72;;;8.70
60731;BMP280;46580;52.114;11.674;2022-09-28T04:23:47;99013.22;;;8.65
60731;BMP280;46580;52.114;11.674;2022-09-28T04:26:21;99009.00;;;8.73
60731;BMP280;46580;52.114;11.674;2022-09-28T04:28:47;99006.88;;;8.69
60731;BMP280;46580;52.114;11.674;2022-09-28T04:34:18;99008.47;;;8.70
60731;BMP280;46580;52.114;11.674;2022-09-28T04:36:47;98998.97;;;8.80
60731;BMP280;46580;52.114;11.674;2022-09-28T04:39:14;99004.31;;;8.69
60731;BMP280;46580;52.114;11.674;2022-09-28T04:41:40;99001.34;;;8.64
60731;BMP280;46580;52.114;11.674;2022-09-28T04:44:06;98999.56;;;8.74
60731;BMP280;46580;52.114;11.674;2022-09-28T04:46:32;99006.28;;;8.75
60731;BMP280;46580;52.114;11.674;2022-09-28T04:48:58;99001.53;;;8.80
60731;BMP280;46580;52.114;11.674;2022-09-28T04:51:23;98990.19;;;8.82
60731;BMP280;46580;52.114;11.674;2022-09-28T04:53:48;98995.88;;;8.76
60731;BMP280;46580;52.114;11.674;2022-09-28T04:56:14;98992.66;;;8.74
60731;BMP280;46580;52.114;11.674;2022-09-28T04:58:40;98995.88;;;8.76
60731;BMP280;46580;52.114;11.674;2022-09-28T05:01:09;98994.91;;;8.77
60731;BMP280;46580;52.114;11.674;2022-09-28T05:03:36;98986.13;;;8.80
60731;BMP280;46580;52.114;11.674;2022-09-28T05:06:02;98982.63;;;8.81
60731;BMP280;46580;52.114;11.674;2022-09-28T05:08:28;98980.50;;;8.93
60731;BMP280;46580;52.114;11.674;2022-09-28T05:10:59;98986.28;;;8.95
60731;BMP280;46580;52.114;11.674;2022-09-28T05:13:25;98981.00;;;8.97
60731;BMP280;46580;52.114;11.674;2022-09-28T05:15:53;98981.53;;;9.00
60731;BMP280;46580;52.114;11.674;2022-09-28T05:18:19;98985.91;;;8.91
60731;BMP280;46580;52.114;11.674;2022-09-28T05:20:44;98984.00;;;8.92
60731;BMP280;46580;52.114;11.674;2022-09-28T05:23:10;98978.81;;;9.02
60731;BMP280;46580;52.114;11.674;2022-09-28T05:25:37;98978.00;;;9.01
60731;BMP280;46580;52.114;11.674;2022-09-28T05:28:03;98976.38;;;9.00
60731;BMP280;46580;52.114;11.674;2022-09-28T05:30:28;98971.13;;;9.02
60731;BMP280;46580;52.114;11.674;2022-09-28T05:32:53;98967.66;;;9.10
60731;BMP280;46580;52.114;11.674;2022-09-28T05:35:19;98979.31;;;9.05
60731;BMP280;46580;52.114;11.674;2022-09-28T05:37:45;98969.56;;;9.09
60731;BMP280;46580;52.114;11.674;2022-09-28T05:40:11;98981.06;;;9.05
60731;BMP280;46580;52.114;11.674;2022-09-28T05:42:36;98971.47;;;9.07
60731;BMP280;46580;52.114;11.674;2022-09-28T05:45:02;98970.66;;;9.06
60731;BMP280;46580;52.114;11.674;2022-09-28T05:47:27;98970.66;;;9.06
60731;BMP280;46580;52.114;11.674;2022-09-28T05:49:54;98963.91;;;9.05
60731;BMP280;46580;52.114;11.674;2022-09-28T05:52:19;98965.59;;;9.14
60731;BMP280;46580;52.114;11.674;2022-09-28T05:54:45;98968.03;;;9.15
60731;BMP280;46580;52.114;11.674;2022-09-28T05:57:11;98970.94;;;9.03
60731;BMP280;46580;52.114;11.674;2022-09-28T05:59:36;98970.94;;;9.03
60731;BMP280;46580;52.114;11.674;2022-09-28T06:02:03;98967.81;;;9.09
60731;BMP280;46580;52.114;11.674;2022-09-28T06:04:29;98967.66;;;9.10
60731;BMP280;46580;52.114;11.674;2022-09-28T06:06:55;98963.78;;;9.07
60731;BMP280;46580;52.114;11.674;2022-09-28T06:09:20;98957.84;;;9.06
60731;BMP280;46580;52.114;11.674;2022-09-28T06:11:48;98961.22;;;9.07
60731;BMP280;46580;52.114;11.674;2022-09-28T06:14:13;98962.38;;;9.12
60731;BMP280;46580;52.114;11.674;2022-09-28T06:16:39;98964.78;;;9.13
60731;BMP280;46580;52.114;11.674;2022-09-28T06:19:05;98968.84;;;9.16
60731;BMP280;46580;52.114;11.674;2022-09-28T06:21:30;98970.72;;;9.14
60731;BMP280;46580;52.114;11.674;2022-09-28T06:23:55;98955.41;;;9.22
60731;BMP280;46580;52.114;11.674;2022-09-28T06:26:21;98956.91;;;9.32
60731;BMP280;46580;52.114;11.674;2022-09-28T06:28:46;98954.13;;;9.26
60731;BMP280;46580;52.114;11.674;2022-09-28T06:31:12;98958.81;;;9.30
60731;BMP280;46580;52.114;11.674;2022-09-28T06:33:37;98957.72;;;9.32
60731;BMP280;46580;52.114;11.674;2022-09-28T06:36:03;98960.41;;;9.31
60731;BMP280;46580;52.114;11.674;2022-09-28T06:38:28;98956.50;;;9.44
60731;BMP280;46580;52.114;11.674;2022-09-28T06:40:55;98964.84;;;9.63
60731;BMP280;46580;52.114;11.674;2022-09-28T06:43:21;98965.88;;;9.53
60731;BMP280;46580;52.114;11.674;2022-09-28T06:45:50;98962.16;;;9.47
60731;BMP280;46580;52.114;11.674;2022-09-28T06:48:16;98967.94;;;9.49
60731;BMP280;46580;52.114;11.674;2022-09-28T06:50:42;98960.25;;;9.49
60731;BMP280;46580;52.114;11.674;2022-09-28T06:53:10;98967.28;;;9.47
60731;BMP280;46580;52.114;11.674;2022-09-28T06:55:43;98970.34;;;9.51
60731;BMP280;46580;52.114;11.674;2022-09-28T06:58:12;98969.78;;;9.65
60731;BMP280;46580;52.114;11.674;2022-09-28T07:00:39;98968.78;;;9.58
60731;BMP280;46580;52.114;11.674;2022-09-28T07:03:07;98973.94;;;9.58
60731;BMP280;46580;52.114;11.674;2022-09-28T07:05:35;98964.91;;;9.54
60731;BMP280;46580;52.114;11.674;2022-09-28T07:08:04;98962.56;;;9.60
60731;BMP280;46580;52.114;11.674;2022-09-28T07:10:30;98974.78;;;9.83
60731;BMP280;46580;52.114;11.674;2022-09-28T07:12:57;98976.34;;;9.59
60731;BMP280;46580;52.114;11.674;2022-09-28T07:15:23;98979.88;;;9.58
60731;BMP280;46580;52.114;11.674;2022-09-28T07:17:55;98980.00;;;9.57
60731;BMP280;46580;52.114;11.674;2022-09-28T07:20:21;98975.75;;;9.65
60731;BMP280;46580;52.114;11.674;2022-09-28T07:22:51;98982.03;;;9.70
60731;BMP280;46580;52.114;11.674;2022-09-28T07:25:17;98982.69;;;9.72
60731;BMP280;46580;52.114;11.674;2022-09-28T07:27:42;98983.44;;;9.65
60731;BMP280;46580;52.114;11.674;2022-09-28T07:30:08;98980.88;;;9.65
60731;BMP280;46580;52.114;11.674;2022-09-28T07:32:33;98989.53;;;9.64
60731;BMP280;46580;52.114;11.674;2022-09-28T07:35:01;98990.63;;;9.79
60731;BMP280;46580;52.114;11.674;2022-09-28T07:37:36;98991.66;;;9.68
60731;BMP280;46580;52.114;11.674;2022-09-28T07:40:03;98993.56;;;9.66
60731;BMP280;46580;52.114;11.674;2022-09-28T07:42:47;98989.97;;;9.77
60731;BMP280;46580;52.114;11.674;2022-09-28T07:45:12;98990.25;;;9.74
60731;BMP280;46580;52.114;11.674;2022-09-28T07:47:38;98986.31;;;9.62
60731;BMP280;46580;52.114;11.674;2022-09-28T07:50:03;98987.84;;;9.47
60731;BMP280;46580;52.114;11.674;2022-09-28T07:52:29;98991.09;;;9.57
60731;BMP280;46580;52.114;11.674;2022-09-28T07:54:54;98992.09;;;9.64
60731;BMP280;46580;52.114;11.674;2022-09-28T07:57:21;98996.81;;;9.68
60731;BMP280;46580;52.114;11.674;2022-09-28T07:59:48;98993.28;;;9.69
60731;BMP280;46580;52.114;11.674;2022-09-28T08:02:14;98994.34;;;9.84
60731;BMP280;46580;52.114;11.674;2022-09-28T08:04:40;98993.28;;;9.69
60731;BMP280;46580;52.114;11.674;2022-09-28T08:07:09;98996.94;;;9.67
60731;BMP280;46580;52.114;11.674;2022-09-28T08:09:35;98991.94;;;9.65
60731;BMP280;46580;52.114;11.674;2022-09-28T08:12:01;99000.66;;;9.72
60731;BMP280;46580;52.114;11.674;2022-09-28T08:14:28;98999.38;;;9.68
60731;BMP280;46580;52.114;11.674;2022-09-28T08:16:56;98999.53;;;9.92
60731;BMP280;46580;52.114;11.674;2022-09-28T08:19:21;99000.47;;;9.83
60731;BMP280;46580;52.114;11.674;2022-09-28T08:21:46;99001.84;;;10.03
60731;BMP280;46580;52.114;11.674;2022-09-28T08:24:13;99009.19;;;9.98
60731;BMP280;46580;52.114;11.674;2022-09-28T08:26:39;99003.03;;;9.91
60731;BMP280;46580;52.114;11.674;2022-09-28T08:29:05;99002.75;;;9.94
60731;BMP280;46580;52.114;11.674;2022-09-28T08:31:30;99002.13;;;10.00
60731;BMP280;46580;52.114;11.674;2022-09-28T08:33:56;99002.13;;;10.00
60731;BMP280;46580;52.114;11.674;2022-09-28T08:36:22;99007.47;;;10.06
60731;BMP280;46580;52.114;11.674;2022-09-28T08:38:48;99002.53;;;10.12
60731;BMP280;46580;52.114;11.674;2022-09-28T08:41:50;99009.56;;;10.03
60731;BMP280;46580;52.114;11.674;2022-09-28T08:44:21;99003.59;;;10.02
60731;BMP280;46580;52.114;11.674;2022-09-28T08:46:55;99011.81;;;10.05
60731;BMP280;46580;52.114;11.674;2022-09-28T08:49:42;99013.56;;;10.05
60731;BMP280;46580;52.114;11.674;2022-09-28T08:52:15;99018.56;;;10.06
60731;BMP280;46580;52.114;11.674;2022-09-28T08:54:55;99013.53;;;9.97
60731;BMP280;46580;52.114;11.674;2022-09-28T08:57:26;99022.66;;;9.92
60731;BMP280;46580;52.114;11.674;2022-09-28T08:59:55;99024.53;;;9.82
60731;BMP280;46580;52.114;11.674;2022-09-28T09:02:26;99021.69;;;9.93
60731;BMP280;46580;52.114;11.674;2022-09-28T09:04:53;99023.69;;;10.06
60731;BMP280;46580;52.114;11.674;2022-09-28T09:18:19;99032.41;;;10.13
60731;BMP280;46580;52.114;11.674;2022-09-28T09:20:54;99040.22;;;10.04
60731;BMP280;46580;52.114;11.674;2022-09-28T09:26:03;99040.34;;;9.95
60731;BMP280;46580;52.114;11.674;2022-09-28T09:34:01;99048.66;;;9.89
60731;BMP280;46580;52.114;11.674;2022-09-28T09:39:37;99047.72;;;9.98
60731;BMP280;46580;52.114;11.674;2022-09-28T09:42:34;99048.41;;;10.00
60731;BMP280;46580;52.114;11.674;2022-09-28T09:48:02;99056.97;;;9.83
60731;BMP280;46580;52.114;11.674;2022-09-28T09:50:36;99053.19;;;9.95
60731;BMP280;46580;52.114;11.674;2022-09-28T09:53:17;99049.28;;;9.91
60731;BMP280;46580;52.114;11.674;2022-09-28T09:55:50;99051.28;;;9.97
60731;BMP280;46580;52.114;11.674;2022-09-28T10:00:54;99058.53;;;10.34
60731;BMP280;46580;52.114;11.674;2022-09-28T10:03:28;99061.25;;;10.32
60731;BMP280;46580;52.114;11.674;2022-09-28T10:06:02;99061.09;;;10.34
60731;BMP280;46580;52.114;11.674;2022-09-28T10:08:33;99061.78;;;10.36
60731;BMP280;46580;52.114;11.674;2022-09-28T10:11:15;99069.34;;;10.37
60731;BMP280;46580;52.114;11.674;2022-09-28T10:13:42;99060.97;;;10.35
60731;BMP280;46580;52.114;11.674;2022-09-28T10:16:08;99067.13;;;10.50
60731;BMP280;46580;52.114;11.674;2022-09-28T10:18:35;99070.38;;;10.59
60731;BMP280;46580;52.114;11.674;2022-09-28T10:21:00;99063.81;;;10.65
60731;BMP280;46580;52.114;11.674;2022-09-28T10:23:29;99060.31;;;10.74
60731;BMP280;46580;52.114;11.674;2022-09-28T10:26:14;99064.78;;;10.72
60731;BMP280;46580;52.114;11.674;2022-09-28T10:31:45;99069.38;;;11.01
60731;BMP280;46580;52.114;11.674;2022-09-28T10:34:15;99065.84;;;11.02
60731;BMP280;46580;52.114;11.674;2022-09-28T10:36:51;99066.84;;;11.16
60731;BMP280;46580;52.114;11.674;2022-09-28T10:39:48;99068.56;;;11.00
60731;BMP280;46580;52.114;11.674;2022-09-28T10:42:31;99074.09;;;11.21
60731;BMP280;46580;52.114;11.674;2022-09-28T10:45:25;99071.97;;;11.01
60731;BMP280;46580;52.114;11.674;2022-09-28T10:47:51;99077.00;;;11.18
60731;BMP280;46580;52.114;11.674;2022-09-28T10:50:22;99068.72;;;10.83
60731;BMP280;46580;52.114;11.674;2022-09-28T10:52:48;99072.09;;;10.92
60731;BMP280;46580;52.114;11.674;2022-09-28T10:55:31;99067.72;;;10.77
60731;BMP280;46580;52.114;11.674;2022-09-28T10:58:18;99079.31;;;10.88
60731;BMP280;46580;52.114;11.674;2022-09-28T11:00:48;99073.06;;;10.98
60731;BMP280;46580;52.114;11.674;2022-09-28T11:03:27;99079.22;;;11.13
60731;BMP280;46580;52.114;11.674;2022-09-28T11:06:05;99071.03;;;11.25
60731;BMP280;46580;52.114;11.674;2022-09-28T11:08:42;99076.50;;;11.22
60731;BMP280;46580;52.114;11.674;2022-09-28T11:11:12;99080.69;;;11.23
60731;BMP280;46580;52.114;11.674;2022-09-28T11:13:44;99084.38;;;11.21
60731;BMP280;46580;52.114;11.674;2022-09-28T11:16:25;99081.63;;;11.14
60731;BMP280;46580;52.114;11.674;2022-09-28T11:18:51;99080.38;;;11.18
60731;BMP280;46580;52.114;11.674;2022-09-28T11:21:21;99081.63;;;11.07
60731;BMP280;46580;52.114;11.674;2022-09-28T11:24:05;99080.53;;;11.25
60731;BMP280;46580;52.114;11.674;2022-09-28T11:26:37;99080.63;;;11.00
60731;BMP280;46580;52.114;11.674;2022-09-28T11:29:17;99078.09;;;11.08
60731;BMP280;46580;52.114;11.674;2022-09-28T11:31:45;99086.13;;;11.05
60731;BMP280;46580;52.114;11.674;2022-09-28T11:34:23;99089.81;;;11.02
60731;BMP280;46580;52.114;11.674;2022-09-28T11:39:42;99084.56;;;11.12
60731;BMP280;46580;52.114;11.674;2022-09-28T11:42:33;99089.28;;;10.83
60731;BMP280;46580;52.114;11.674;2022-09-28T11:45:14;99086.25;;;10.96
60731;BMP280;46580;52.114;11.674;2022-09-28T11:47:50;99084.72;;;11.18
60731;BMP280;46580;52.114;11.674;2022-09-28T11:58:52;99093.78;;;11.30
60731;BMP280;46580;52.114;11.674;2022-09-28T12:01:36;99098.72;;;11.23
60731;BMP280;46580;52.114;11.674;2022-09-28T12:06:50;99093.03;;;11.12
60731;BMP280;46580;52.114;11.674;2022-09-28T12:09:54;99091.44;;;11.19
60731;BMP280;46580;52.114;11.674;2022-09-28T12:12:37;99095.81;;;11.18
60731;BMP280;46580;52.114;11.674;2022-09-28T12:17:49;99091.22;;;11.37
60731;BMP280;46580;52.114;11.674;2022-09-28T12:20:28;99092.63;;;11.32
60731;BMP280;46580;52.114;11.674;2022-09-28T12:23:18;99095.19;;;11.32
60731;BMP280;46580;52.114;11.674;2022-09-28T12:29:23;99109.16;;;10.66
60731;BMP280;46580;52.114;11.674;2022-09-28T12:34:40;99100.19;;;9.87
60731;BMP280;46580;52.114;11.674;2022-09-28T12:48:29;99110.97;;;9.74
60731;BMP280;46580;52.114;11.674;2022-09-28T12:51:15;99109.75;;;9.78
60731;BMP280;46580;52.114;11.674;2022-09-28T13:00:02;99119.03;;;9.96
60731;BMP280;46580;52.114;11.674;2022-09-28T13:06:04;99117.38;;;10.12
60731;BMP280;46580;52.114;11.674;2022-09-28T13:09:17;99120.69;;;10.04
60731;BMP280;46580;52.114;11.674;2022-09-28T13:11:32;99134.00;;;10.00
60731;BMP280;46580;52.114;11.674;2022-09-28T13:19:50;99128.25;;;10.06
60731;BMP280;46580;52.114;11.674;2022-09-28T13:24:55;99129.41;;;10.11
60731;BMP280;46580;52.114;11.674;2022-09-28T13:27:39;99116.94;;;10.16
60731;BMP280;46580;52.114;11.674;2022-09-28T13:30:07;99130.75;;;10.15
60731;BMP280;46580;52.114;11.674;2022-09-28T13:32:35;99120.00;;;10.20
60731;BMP280;46580;52.114;11.674;2022-09-28T13:35:00;99127.91;;;10.26
60731;BMP280;46580;52.114;11.674;2022-09-28T13:37:26;99128.00;;;10.41
60731;BMP280;46580;52.114;11.674;2022-09-28T13:39:59;99137.63;;;10.40
60731;BMP280;46580;52.114;11.674;2022-09-28T13:48:18;99131.59;;;10.48
60731;BMP280;46580;52.114;11.674;2022-09-28T13:50:53;99143.72;;;10.39
60731;BMP280;46580;52.114;11.674;2022-09-28T13:59:47;99144.94;;;10.52
60731;BMP280;46580;52.114;11.674;2022-09-28T14:02:04;99140.53;;;10.44
60731;BMP280;46580;52.114;11.674;2022-09-28T14:05:31;99148.09;;;10.71
60731;BMP280;46580;52.114;11.674;2022-09-28T14:08:24;99141.97;;;10.72
60731;BMP280;46580;52.114;11.674;2022-09-28T14:10:50;99146.44;;;10.62
60731;BMP280;46580;52.114;11.674;2022-09-28T14:16:33;99156.97;;;10.43
60731;BMP280;46580;52.114;11.674;2022-09-28T14:19:07;99154.53;;;10.42
60731;BMP280;46580;52.114;11.674;2022-09-28T14:30:19;99160.16;;;10.45
60731;BMP280;46580;52.114;11.674;2022-09-28T14:32:51;99158.53;;;10.44
60731;BMP280;46580;52.114;11.674;2022-09-28T14:37:59;99160.34;;;10.52
60731;BMP280;46580;52.114;11.674;2022-09-28T14:41:05;99168.50;;;10.40
60731;BMP280;46580;52.114;11.674;2022-09-28T14:48:50;99159.06;;;10.48
60731;BMP280;46580;52.114;11.674;2022-09-28T14:56:17;99167.25;;;10.51
60731;BMP280;46580;52.114;11.674;2022-09-28T14:58:43;99164.25;;;10.56
60731;BMP280;46580;52.114;11.674;2022-09-28T15:01:20;99170.28;;;10.72
60731;BMP280;46580;52.114;11.674;2022-09-28T15:03:55;99179.31;;;10.76
60731;BMP280;46580;52.114;11.674;2022-09-28T15:06:22;99176.25;;;10.80
60731;BMP280;46580;52.114;11.674;2022-09-28T15:08:48;99172.94;;;10.87
60731;BMP280;46580;52.114;11.674;2022-09-28T15:11:17;99174.03;;;10.77
60731;BMP280;46580;52.114;11.674;2022-09-28T15:13:43;99177.69;;;10.75
60731;BMP280;46580;52.114;11.674;2022-09-28T15:16:11;99173.47;;;10.66
60731;BMP280;46580;52.114;11.674;2022-09-28T15:21:36;99178.66;;;10.74
60731;BMP280;46580;52.114;11.674;2022-09-28T15:24:29;99179.94;;;10.70
60731;BMP280;46580;52.114;11.674;2022-09-28T15:26:56;99176.56;;;10.69
60731;BMP280;46580;52.114;11.674;2022-09-28T15:29:22;99172.81;;;10.64
60731;BMP280;46580;52.114;11.674;2022-09-28T15:31:47;99183.47;;;10.69
60731;BMP280;46580;52.114;11.674;2022-09-28T15:34:33;99175.41;;;10.72
60731;BMP280;46580;52.114;11.674;2022-09-28T15:37:21;99187.06;;;10.83
60731;BMP280;46580;52.114;11.674;2022-09-28T15:39:49;99187.03;;;10.76
60731;BMP280;46580;52.114;11.674;2022-09-28T15:42:16;99186.72;;;10.78
60731;BMP280;46580;52.114;11.674;2022-09-28T15:44:58;99189.19;;;10.88
60731;BMP280;46580;52.114;11.674;2022-09-28T15:47:26;99191.78;;;10.96
60731;BMP280;46580;52.114;11.674;2022-09-28T15:49:55;99185.16;;;10.93
60731;BMP280;46580;52.114;11.674;2022-09-28T15:52:27;99197.41;;;10.91
60731;BMP280;46580;52.114;11.674;2022-09-28T15:54:54;99199.00;;;10.92
60731;BMP280;46580;52.114;11.674;2022-09-28T15:57:37;99196.13;;;10.95
60731;BMP280;46580;52.114;11.674;2022-09-28T16:00:27;99192.94;;;11.01
60731;BMP280;46580;52.114;11.674;2022-09-28T16:03:00;99193.94;;;11.08
60731;BMP280;46580;52.114;11.674;2022-09-28T16:08:03;99205.84;;;11.09
60731;BMP280;46580;52.114;11.674;2022-09-28T16:10:31;99199.69;;;11.02
60731;BMP280;46580;52.114;11.674;2022-09-28T16:13:16;99205.84;;;11.09
60731;BMP280;46580;52.114;11.674;2022-09-28T16:15:45;99206.03;;;11.15
60731;BMP280;46580;52.114;11.674;2022-09-28T16:20:43;99211.66;;;11.11
60731;BMP280;46580;52.114;11.674;2022-09-28T16:23:21;99213.56;;;11.09
60731;BMP280;46580;52.114;11.674;2022-09-28T16:25:57;99217.09;;;11.08
60731;BMP280;46580;52.114;11.674;2022-09-28T16:31:03;99219.47;;;11.01
60731;BMP280;46580;52.114;11.674;2022-09-28T16:33:51;99218.63;;;10.93
60731;BMP280;46580;52.114;11.674;2022-09-28T16:36:18;99227.03;;;10.95
60731;BMP280;46580;52.114;11.674;2022-09-28T16:38:45;99223.81;;;11.01
60731;BMP280;46580;52.114;11.674;2022-09-28T16:41:11;99236.41;;;11.04
60731;BMP280;46580;52.114;11.674;2022-09-28T16:43:37;99237.22;;;11.04
60731;BMP280;46580;52.114;11.674;2022-09-28T16:46:07;99245.06;;;11.03
60731;BMP280;46580;52.114;11.674;2022-09-28T16:48:37;99237.84;;;11.06
60731;BMP280;46580;52.114;11.674;2022-09-28T16:51:04;99243.50;;;11.10
60731;BMP280;46580;52.114;11.674;2022-09-28T16:53:30;99247.03;;;11.09
60731;BMP280;46580;52.114;11.674;2022-09-28T16:56:14;99240.13;;;11.09
60731;BMP280;46580;52.114;11.674;2022-09-28T16:58:40;99250.56;;;11.08
60731;BMP280;46580;52.114;11.674;2022-09-28T17:01:15;99251.84;;;11.04
60731;BMP280;46580;52.114;11.674;2022-09-28T17:03:40;99253.28;;;11.06
60731;BMP280;46580;52.114;11.674;2022-09-28T17:06:11;99256.19;;;11.03